Dades meteomassalio
Diari Summary for Gener 22, 2018 Units:  Metric    English   Both
« Previous Day
Next Day »
Diari Semanal Mensual Anual Personalitzat
  Maxima: Minima: Mijana:
Temperatura: -17.8 °C -14.7 °C -10.4 °C
Rosada: -17.8 °C -16.7 °C -14 °C
Humitat: Humidity % 51 % 65 %
Velocitat del vent: 0 km/h 0 km/h 43.3 km/h
Racha vent: 0 km/h - -
Vent:- - NW
Pressio: 0 hPa 34774.2 hPa -
Pluja: 0 mm    
Historical Graphs
 
 
Tabular Data for Gener 22, 2018
Time Temperature Dew Point Pressure Wind Wind Speed Wind Gust Humidity Rainfall Rate (Hourly) solar Conditions
-17.8 °C -17.8 °C 0 hPa Calm     Humidity % 0 mm SolarRadiationWatts/m^2 W/m2 Conditions
00:00 -10.4 °C -13.1 °C 34841.9 hPa WNW 41.7 km/h 41.7 km/h 72 % 0 mm 0.0 W/m2 CLR
00:10 -10.4 °C -13.2 °C 34841.9 hPa NW 46.7 km/h 46.7 km/h 71 % 0 mm 0.0 W/m2 CLR
00:15 -10.4 °C -13.2 °C 34841.9 hPa WNW 50.7 km/h 50.7 km/h 71 % 0 mm 0.0 W/m2 CLR
00:20 -10.4 °C -13.2 °C 34841.9 hPa NNW 36.2 km/h 36.2 km/h 71 % 0 mm 0.0 W/m2 CLR
00:30 -10.4 °C -13.2 °C 34841.9 hPa NW 50.7 km/h 50.7 km/h 71 % 0 mm 0.0 W/m2 CLR
00:35 -10.4 °C -13.2 °C 34841.9 hPa NW 47.6 km/h 47.6 km/h 71 % 0 mm 0.0 W/m2 CLR
00:40 -10.4 °C -13.2 °C 34841.9 hPa NW 47.6 km/h 47.6 km/h 71 % 0 mm 0.0 W/m2 CLR
00:46 -10.4 °C -13.2 °C 34841.9 hPa NW 56.6 km/h 56.6 km/h 71 % 0 mm 0.0 W/m2 CLR
00:51 -10.4 °C -13.2 °C 34841.9 hPa NW 51.8 km/h 51.8 km/h 71 % 0 mm 0.0 W/m2 CLR
00:56 -10.4 °C -13.2 °C 34841.9 hPa NNW 50.7 km/h 50.7 km/h 71 % 0 mm 0.0 W/m2 CLR
01:01 -10.4 °C -13.2 °C 34831.8 hPa NW 47.6 km/h 47.6 km/h 71 % 0 mm 0.0 W/m2 CLR
01:06 -10.4 °C -13.2 °C 34841.9 hPa NW 38.8 km/h 38.8 km/h 71 % 0 mm 0.0 W/m2 CLR
01:12 -10.4 °C -13.2 °C 34841.9 hPa NW 38.8 km/h 38.8 km/h 71 % 0 mm 0.0 W/m2 CLR
01:16 -10.4 °C -13.2 °C 34831.8 hPa NW 50.7 km/h 50.7 km/h 71 % 0 mm 0.0 W/m2 CLR
01:22 -10.4 °C -13.2 °C 34831.8 hPa NW 38.8 km/h 38.8 km/h 71 % 0 mm 0.0 W/m2 CLR
01:27 -10.4 °C -13.3 °C 34831.8 hPa NW 38.8 km/h 38.8 km/h 70 % 0 mm 0.0 W/m2 CLR
01:32 -10.4 °C -13.3 °C 34831.8 hPa NW 38.8 km/h 38.8 km/h 70 % 0 mm 0.0 W/m2 CLR
01:37 -10.4 °C -13.3 °C 34831.8 hPa WNW 32.8 km/h 32.8 km/h 70 % 0 mm 0.0 W/m2 CLR
01:42 -10.4 °C -13.2 °C 34831.8 hPa NW 35.7 km/h 35.7 km/h 71 % 0 mm 0.0 W/m2 CLR
01:47 -10.7 °C -13.5 °C 34831.8 hPa WNW 41.7 km/h 41.7 km/h 71 % 0 mm 0.0 W/m2 CLR
01:52 -10.7 °C -13.7 °C 34831.8 hPa WNW 32.8 km/h 32.8 km/h 70 % 0 mm 0.0 W/m2 CLR
01:57 -10.7 °C -13.7 °C 34831.8 hPa NW 50.7 km/h 50.7 km/h 70 % 0 mm 0.0 W/m2 CLR
02:02 -10.7 °C -13.7 °C 34818.2 hPa NW 31.1 km/h 31.1 km/h 70 % 0 mm 0.0 W/m2 CLR
02:07 -10.4 °C -13.3 °C 34831.8 hPa NW 47.6 km/h 47.6 km/h 70 % 0 mm 0.0 W/m2 CLR
02:12 -10.4 °C -13.3 °C 34831.8 hPa WNW 41.7 km/h 41.7 km/h 70 % 0 mm 0.0 W/m2 CLR
02:17 -10.7 °C -13.7 °C 34831.8 hPa WNW 36.2 km/h 36.2 km/h 70 % 0 mm 0.0 W/m2 CLR
02:22 -10.7 °C -13.7 °C 34831.8 hPa WNW 20.9 km/h 20.9 km/h 70 % 0 mm 0.0 W/m2 CLR
02:27 -10.7 °C -13.5 °C 34831.8 hPa WNW 29.8 km/h 29.8 km/h 71 % 0 mm 0.0 W/m2 CLR
02:32 -10.7 °C -13.5 °C 34831.8 hPa WNW 17.9 km/h 17.9 km/h 71 % 0 mm 0.0 W/m2 CLR
02:37 -10.7 °C -13.5 °C 34831.8 hPa WNW 17.9 km/h 17.9 km/h 71 % 0 mm 0.0 W/m2 CLR
02:42 -11 °C -13.8 °C 34831.8 hPa WSW 7.7 km/h 7.7 km/h 71 % 0 mm 0.0 W/m2 CLR
02:47 -11 °C -13.7 °C 34831.8 hPa West 11.9 km/h 11.9 km/h 72 % 0 mm 0.0 W/m2 CLR
02:52 -11.3 °C -14 °C 34831.8 hPa West 9 km/h 9 km/h 72 % 0 mm 0.0 W/m2 CLR
02:57 -11.6 °C -14.2 °C 34831.8 hPa Calm     73 % 0 mm 0.0 W/m2 CLR
03:02 -11.6 °C -14.2 °C 34831.8 hPa WNW 20.9 km/h 20.9 km/h 73 % 0 mm 0.0 W/m2 CLR
03:07 -11.3 °C -13.9 °C 34831.8 hPa Calm     73 % 0 mm 0.0 W/m2 CLR
03:12 -11.3 °C -13.8 °C 34831.8 hPa Calm     74 % 0 mm 0.0 W/m2 CLR
03:17 -11.6 °C -14 °C 34831.8 hPa West 29.8 km/h 29.8 km/h 75 % 0 mm 0.0 W/m2 CLR
03:22 -11.9 °C -14.4 °C 34831.8 hPa Calm     74 % 0 mm 0.0 W/m2 CLR
03:27 -11.9 °C -14.4 °C 34831.8 hPa Calm     74 % 0 mm 0.0 W/m2 CLR
03:37 -12.2 °C -14.6 °C 34831.8 hPa WNW 11.9 km/h 11.9 km/h 75 % 0 mm 0.0 W/m2 CLR
03:47 -11.9 °C -14.4 °C 34831.8 hPa NW 41.7 km/h 41.7 km/h 74 % 0 mm 0.0 W/m2 CLR
03:52 -11.6 °C -14.1 °C 34831.8 hPa WNW 41.7 km/h 41.7 km/h 74 % 0 mm 0.0 W/m2 CLR
03:57 -11.6 °C -14.2 °C 34831.8 hPa WNW 41.7 km/h 41.7 km/h 73 % 0 mm 0.0 W/m2 CLR
04:02 -11.6 °C -14.2 °C 34831.8 hPa West 20.9 km/h 20.9 km/h 73 % 0 mm 0.0 W/m2 CLR
04:07 -11.6 °C -14.1 °C 34831.8 hPa WSW 29.8 km/h 29.8 km/h 74 % 0 mm 0.0 W/m2 CLR
04:12 -11.6 °C -14.1 °C 34831.8 hPa West 3.1 km/h 3.1 km/h 74 % 0 mm 0.0 W/m2 CLR
04:17 -11.6 °C -14 °C 34831.8 hPa WNW 26.9 km/h 26.9 km/h 75 % 0 mm 0.0 W/m2 CLR
04:22 -11.9 °C -14.3 °C 34831.8 hPa WNW 47.6 km/h 47.6 km/h 75 % 0 mm 0.0 W/m2 CLR
04:27 -11.9 °C -14.3 °C 34831.8 hPa NW 29.8 km/h 29.8 km/h 75 % 0 mm 0.0 W/m2 CLR
04:32 -11.9 °C -14.3 °C 34831.8 hPa West 9 km/h 9 km/h 75 % 0 mm 0.0 W/m2 CLR
04:47 -11.9 °C -14.2 °C 34831.8 hPa West 29.8 km/h 29.8 km/h 76 % 0 mm 0.0 W/m2 CLR
04:52 -11.6 °C -13.8 °C 34831.8 hPa WNW 23.8 km/h 23.8 km/h 76 % 0 mm 0.0 W/m2 CLR
04:57 -11.9 °C -14.2 °C 34818.2 hPa NW 29.8 km/h 29.8 km/h 76 % 0 mm 0.0 W/m2 CLR
05:02 -11.9 °C -14.3 °C 34818.2 hPa WNW 31.1 km/h 31.1 km/h 75 % 0 mm 0.0 W/m2 CLR
05:07 -11.9 °C -14.3 °C 34818.2 hPa WNW 32.8 km/h 32.8 km/h 75 % 0 mm 0.0 W/m2 CLR
05:12 -11.9 °C -14.3 °C 34818.2 hPa West 41.7 km/h 41.7 km/h 75 % 0 mm 0.0 W/m2 CLR
05:22 -11.6 °C -14 °C 34831.8 hPa WNW 41.7 km/h 41.7 km/h 75 % 0 mm 0.0 W/m2 CLR
05:37 -11.6 °C -14.1 °C 34831.8 hPa WNW 35.7 km/h 35.7 km/h 74 % 0 mm 0.0 W/m2 CLR
05:47 -11.6 °C -14.1 °C 34831.8 hPa WNW 38.8 km/h 38.8 km/h 74 % 0 mm 0.0 W/m2 CLR
05:57 -11.9 °C -14.4 °C 34818.2 hPa West 3.1 km/h   74 % 0 mm 0.0 W/m2 CLR
06:02 -11.9 °C -14.3 °C 34818.2 hPa WNW 29.8 km/h 29.8 km/h 75 % 0 mm 0.0 W/m2 CLR
06:12 -11.9 °C -14.5 °C 34818.2 hPa NNW 50.7 km/h 50.7 km/h 73 % 0 mm 0.0 W/m2 CLR
06:17 -11.6 °C -14.2 °C 34831.8 hPa NW 35.7 km/h 35.7 km/h 73 % 0 mm 0.0 W/m2 CLR
06:22 -11.6 °C -14.2 °C 34831.8 hPa NW 41.4 km/h 41.4 km/h 73 % 0 mm 0.0 W/m2 CLR
06:27 -11.6 °C -14.2 °C 34831.8 hPa NW 35.7 km/h 35.7 km/h 73 % 0 mm 0.0 W/m2 CLR
06:37 -11.9 °C -14.5 °C 34818.2 hPa West 20.9 km/h 20.9 km/h 73 % 0 mm 0.0 W/m2 CLR
06:42 -11.9 °C -14.4 °C 34831.8 hPa Calm     74 % 0 mm 0.0 W/m2 CLR
06:47 -12.2 °C -14.7 °C 34831.8 hPa WSW 9 km/h 9 km/h 74 % 0 mm 0.0 W/m2 CLR
06:57 -12.6 °C -14.9 °C 34818.2 hPa Calm     75 % 0 mm 0.0 W/m2 CLR
07:02 -12.8 °C -15.2 °C 34831.8 hPa Calm     75 % 0 mm 0.0 W/m2 CLR
07:12 -13.2 °C -15.4 °C 34818.2 hPa Calm     76 % 0 mm 0.0 W/m2 CLR
07:17 -13.4 °C -15.7 °C 34818.2 hPa Calm     76 % 0 mm 0.0 W/m2 CLR
07:22 -13.2 °C -15.4 °C 34818.2 hPa Calm     76 % 0 mm 0.0 W/m2 CLR
07:27 -13.4 °C -15.7 °C 34818.2 hPa Calm     76 % 0 mm 0.0 W/m2 CLR
07:32 -13.8 °C -15.9 °C 34818.2 hPa Calm     77 % 0 mm 0.0 W/m2 CLR
07:38 -13.8 °C -15.7 °C 34818.2 hPa Calm     78 % 0 mm 0.0 W/m2 CLR
07:48 -14.4 °C -16.3 °C 34818.2 hPa Calm     78 % 0 mm 0.0 W/m2 CLR
07:53 -14.4 °C -16.3 °C 34818.2 hPa Calm   0.8 km/h 78 % 0 mm 0.0 W/m2 CLR
07:58 -14.7 °C -16.7 °C 34818.2 hPa WSW 6 km/h 6 km/h 78 % 0 mm 0.0 W/m2 CLR
08:03 -14.7 °C -16.7 °C 34818.2 hPa WSW 6 km/h 6 km/h 78 % 0 mm 0.0 W/m2 CLR
08:08 -14.7 °C -16.6 °C 34818.2 hPa WSW 9 km/h 9 km/h 79 % 0 mm 0.0 W/m2 OVC
08:13 -14.7 °C -16.6 °C 34818.2 hPa WNW 15 km/h 15 km/h 79 % 0 mm 0.0 W/m2 OVC
08:18 -14.7 °C -16.6 °C 34818.2 hPa West 9 km/h 9 km/h 79 % 0 mm 5.0 W/m2 OVC
08:28 -14.1 °C -15.9 °C 34818.2 hPa West 17.9 km/h 17.9 km/h 79 % 0 mm 9.0 W/m2 BKN
08:33 -13.4 °C -15.3 °C 34818.2 hPa West 23.8 km/h 23.8 km/h 79 % 0 mm 11.0 W/m2 BKN
08:43 -13.4 °C -15.4 °C 34831.8 hPa West 15 km/h 15 km/h 78 % 0 mm 14.0 W/m2 BKN
08:48 -13.4 °C -15.6 °C 34831.8 hPa WSW 9 km/h 9 km/h 77 % 0 mm 18.0 W/m2 BKN
08:53 -12.8 °C -14.9 °C 34831.8 hPa West 12.9 km/h 12.9 km/h 77 % 0 mm 28.0 W/m2 BKN
08:58 -12.6 °C -14.9 °C 34831.8 hPa NW 11.9 km/h 11.9 km/h 75 % 0 mm 37.0 W/m2 BKN
09:03 -12.2 °C -14.6 °C 34831.8 hPa WSW 9 km/h 9 km/h 75 % 0 mm 47.0 W/m2 SCT
09:08 -11.9 °C -14.4 °C 34841.9 hPa Calm     74 % 0 mm 56.0 W/m2 SCT
09:18 -11.9 °C -14.5 °C 34841.9 hPa Calm     73 % 0 mm 74.0 W/m2 FEW
09:23 -11.9 °C -14.6 °C 34841.9 hPa West 6 km/h 6 km/h 72 % 0 mm 84.0 W/m2 FEW
09:33 -11.9 °C -14.8 °C 34841.9 hPa NW 23.8 km/h 23.8 km/h 70 % 0 mm 127.0 W/m2 CLR
09:38 -11.9 °C -14.9 °C 34841.9 hPa WNW 17.9 km/h 17.9 km/h 69 % 0 mm 139.0 W/m2 CLR
09:48 -11.6 °C -14.8 °C 34841.9 hPa NW 36.2 km/h 36.2 km/h 68 % 0 mm 174.0 W/m2 CLR
09:53 -11.3 °C -14.6 °C 34841.9 hPa West 32.8 km/h 32.8 km/h 67 % 0 mm 188.0 W/m2 CLR
09:58 -11 °C -14.3 °C 34841.9 hPa NW 29.8 km/h 29.8 km/h 67 % 0 mm 148.0 W/m2 CLR
10:03 -11 °C -14.3 °C 34841.9 hPa WNW 29.8 km/h 29.8 km/h 67 % 0 mm 220.0 W/m2 CLR
10:08 -11 °C -14.3 °C 34841.9 hPa WNW 36.2 km/h 36.2 km/h 67 % 0 mm 236.0 W/m2 CLR
10:18 -10.7 °C -14.1 °C 34852.1 hPa NW 9 km/h 9 km/h 66 % 0 mm 262.0 W/m2 CLR
10:28 -10.4 °C -13.9 °C 34852.1 hPa WNW 15 km/h 15 km/h 65 % 0 mm 285.0 W/m2 CLR
10:33 -10.4 °C -13.9 °C 34852.1 hPa NW 3.1 km/h 3.1 km/h 65 % 0 mm 295.0 W/m2 CLR
10:43 -10.1 °C -13.9 °C 34865.6 hPa NW 15 km/h 15 km/h 63 % 0 mm 320.0 W/m2 CLR
10:48 -10.1 °C -14.2 °C 34865.6 hPa WNW 38.8 km/h 38.8 km/h 61 % 0 mm 329.0 W/m2 CLR
10:58 -9.8 °C -13.9 °C 34865.6 hPa NW 29.8 km/h 29.8 km/h 61 % 0 mm 348.0 W/m2 CLR
11:03 -9.8 °C -14 °C 34865.6 hPa NW 36.2 km/h 36.2 km/h 60 % 0 mm 359.0 W/m2 CLR
11:08 -9.4 °C -13.7 °C 34865.6 hPa WNW 7.7 km/h 7.7 km/h 60 % 0 mm 369.0 W/m2 CLR
11:13 -9.4 °C -13.7 °C 34865.6 hPa WNW 44.7 km/h 44.7 km/h 60 % 0 mm 378.0 W/m2 CLR
11:18 -9.4 °C -13.7 °C 34865.6 hPa NNW 35.7 km/h 35.7 km/h 60 % 0 mm 385.0 W/m2 CLR
11:23 -9.4 °C -13.8 °C 34865.6 hPa NNW 44.7 km/h 44.7 km/h 59 % 0 mm 394.0 W/m2 CLR
11:28 -9.4 °C -13.8 °C 34852.1 hPa NNW 56.6 km/h 56.6 km/h 59 % 0 mm 397.0 W/m2 CLR
11:33 -9.4 °C -13.8 °C 34852.1 hPa NNW 51.8 km/h 51.8 km/h 59 % 0 mm 410.0 W/m2 CLR
11:38 -9.4 °C -13.8 °C 34852.1 hPa NNW 62.6 km/h 62.6 km/h 59 % 0 mm 417.0 W/m2 CLR
11:43 -9.4 °C -13.8 °C 34852.1 hPa NNW 53.6 km/h 53.6 km/h 59 % 0 mm 424.0 W/m2 CLR
11:48 -9.4 °C -14 °C 34852.1 hPa NNW 68.6 km/h 68.6 km/h 58 % 0 mm 432.0 W/m2 CLR
11:53 -9.4 °C -13.8 °C 34841.9 hPa NW 59.5 km/h 59.5 km/h 59 % 0 mm 439.0 W/m2 CLR
11:58 -9.4 °C -13.8 °C 34841.9 hPa WNW 62.6 km/h 62.6 km/h 59 % 0 mm 445.0 W/m2 CLR
12:03 -9.4 °C -13.8 °C 34841.9 hPa NW 65.5 km/h 65.5 km/h 59 % 0 mm 452.0 W/m2 CLR
12:08 -9.1 °C -13.6 °C 34841.9 hPa WNW 53.6 km/h 53.6 km/h 59 % 0 mm 459.0 W/m2 CLR
12:13 -9.4 °C -13.8 °C 34841.9 hPa NW 59.5 km/h 59.5 km/h 59 % 0 mm 462.0 W/m2 CLR
12:18 -9.1 °C -13.7 °C 34841.9 hPa NNW 59.5 km/h 59.5 km/h 58 % 0 mm 466.0 W/m2 CLR
12:23 -9.1 °C -13.7 °C 34841.9 hPa NW 53.6 km/h 53.6 km/h 58 % 0 mm 469.0 W/m2 CLR
12:28 -9.1 °C -13.7 °C 34831.8 hPa NW 41.7 km/h 41.7 km/h 58 % 0 mm 476.0 W/m2 CLR
12:33 -8.8 °C -13.6 °C 34841.9 hPa NNW 46.7 km/h 46.7 km/h 57 % 0 mm 480.0 W/m2 CLR
12:38 -8.8 °C -13.7 °C 34841.9 hPa North 59.5 km/h 59.5 km/h 56 % 0 mm 482.0 W/m2 CLR
12:43 -8.8 °C -13.7 °C 34831.8 hPa NW 50.7 km/h 50.7 km/h 56 % 0 mm 483.0 W/m2 CLR
12:53 -8.8 °C -13.8 °C 34831.8 hPa NW 47.6 km/h 47.6 km/h 55 % 0 mm 487.0 W/m2 CLR
12:58 -8.8 °C -13.7 °C 34818.2 hPa NNW 62.6 km/h 62.6 km/h 56 % 0 mm 489.0 W/m2 CLR
13:03 -8.8 °C -13.8 °C 34818.2 hPa NNW 41.7 km/h 41.7 km/h 55 % 0 mm 489.0 W/m2 CLR
13:13 -8.5 °C -13.7 °C 34818.2 hPa NNW 33.6 km/h 33.6 km/h 54 % 0 mm 490.0 W/m2 CLR
13:18 -8.5 °C -13.7 °C 34808.1 hPa WNW 38.8 km/h 38.8 km/h 54 % 0 mm 490.0 W/m2 CLR
13:28 -8.2 °C -13.7 °C 34808.1 hPa NNW 41.4 km/h 41.4 km/h 52 % 0 mm 489.0 W/m2 CLR
13:33 -8.2 °C -13.7 °C 34808.1 hPa North 44.7 km/h 44.7 km/h 52 % 0 mm 489.0 W/m2 CLR
13:38 -8.2 °C -13.7 °C 34808.1 hPa NNW 47.6 km/h 47.6 km/h 52 % 0 mm 485.0 W/m2 CLR
13:49 -8.5 °C -13.7 °C 34808.1 hPa NW 32.8 km/h 32.8 km/h 54 % 0 mm 483.0 W/m2 CLR
13:59 -8.5 °C -13.8 °C 34797.9 hPa NNW 57 km/h 57 km/h 53 % 0 mm 475.0 W/m2 CLR
14:04 -8.5 °C -13.7 °C 34797.9 hPa NW 50.7 km/h 50.7 km/h 54 % 0 mm 471.0 W/m2 CLR
14:14 -8.5 °C -13.7 °C 34797.9 hPa NW 56.6 km/h 56.6 km/h 54 % 0 mm 464.0 W/m2 CLR
14:24 -8.5 °C -13.6 °C 34797.9 hPa NNW 26.9 km/h 26.9 km/h 55 % 0 mm 454.0 W/m2 CLR
14:29 -8.5 °C -13.6 °C 34797.9 hPa NNW 44.7 km/h 44.7 km/h 55 % 0 mm 445.0 W/m2 CLR
14:34 -8.5 °C -13.7 °C 34784.4 hPa NW 41.7 km/h 41.7 km/h 54 % 0 mm 439.0 W/m2 CLR
14:44 -8.5 °C -13.7 °C 34784.4 hPa NW 29.8 km/h 29.8 km/h 54 % 0 mm 427.0 W/m2 CLR
14:54 -8.2 °C -13.4 °C 34784.4 hPa NW 29.8 km/h 29.8 km/h 54 % 0 mm 413.0 W/m2 CLR
14:59 -8.5 °C -13.7 °C 34784.4 hPa NNW 47.6 km/h 47.6 km/h 54 % 0 mm 403.0 W/m2 CLR
15:04 -8.2 °C -13.4 °C 34784.4 hPa NNW 29.8 km/h 29.8 km/h 54 % 0 mm 394.0 W/m2 CLR
15:09 -8.2 °C -13.6 °C 34774.2 hPa WNW 26.9 km/h 26.9 km/h 53 % 0 mm 387.0 W/m2 CLR
15:19 -8.2 °C -13.7 °C 34774.2 hPa NW 53.6 km/h 53.6 km/h 52 % 0 mm 371.0 W/m2 CLR
15:24 -8.5 °C -13.8 °C 34774.2 hPa NW 44.7 km/h 44.7 km/h 53 % 0 mm 364.0 W/m2 CLR
15:34 -8.5 °C -14 °C 34774.2 hPa WNW 29.8 km/h 29.8 km/h 52 % 0 mm 345.0 W/m2 CLR
15:44 -8.5 °C -14 °C 34774.2 hPa NW 41.7 km/h 41.7 km/h 52 % 0 mm 322.0 W/m2 CLR
15:49 -8.5 °C -14.2 °C 34774.2 hPa North 47.6 km/h 47.6 km/h 51 % 0 mm 315.0 W/m2 CLR
15:54 -8.2 °C -13.9 °C 34774.2 hPa NW 38.8 km/h 38.8 km/h 51 % 0 mm 304.0 W/m2 CLR
15:59 -8.5 °C -14.2 °C 34774.2 hPa NW 41.4 km/h 41.4 km/h 51 % 0 mm 294.0 W/m2 CLR
16:04 -8.2 °C -13.9 °C 34774.2 hPa NW 41.7 km/h 41.7 km/h 51 % 0 mm 283.0 W/m2 CLR
16:09 -8.5 °C -14.2 °C 34774.2 hPa NNW 49.2 km/h 49.2 km/h 51 % 0 mm 271.0 W/m2 CLR
16:14 -8.5 °C -14.2 °C 34774.2 hPa NNW 59.5 km/h 59.5 km/h 51 % 0 mm 262.0 W/m2 CLR
16:19 -8.5 °C -14.2 °C 34774.2 hPa NW 53.6 km/h 53.6 km/h 51 % 0 mm 251.0 W/m2 CLR
16:24 -8.5 °C -14.2 °C 34774.2 hPa NNW 47.6 km/h 47.6 km/h 51 % 0 mm 241.0 W/m2 CLR
16:29 -8.5 °C -14.2 °C 34774.2 hPa NNW 68.6 km/h 68.6 km/h 51 % 0 mm 229.0 W/m2 CLR
16:34 -8.8 °C -14.5 °C 34774.2 hPa NW 77.4 km/h 77.4 km/h 51 % 0 mm 211.0 W/m2 CLR
16:39 -8.8 °C -14.5 °C 34774.2 hPa NNW 59.5 km/h 59.5 km/h 51 % 0 mm 195.0 W/m2 CLR
16:44 -8.8 °C -14.5 °C 34774.2 hPa NNW 68.6 km/h 68.6 km/h 51 % 0 mm 172.0 W/m2 CLR
16:49 -8.8 °C -14.5 °C 34774.2 hPa NNW 68.6 km/h 68.6 km/h 51 % 0 mm 153.0 W/m2 CLR
16:54 -8.8 °C -14.5 °C 34784.4 hPa North 77.4 km/h 77.4 km/h 51 % 0 mm 135.0 W/m2 CLR
16:59 -8.8 °C -14.3 °C 34774.2 hPa NNW 53.6 km/h 53.6 km/h 52 % 0 mm 118.0 W/m2 CLR
17:04 -8.8 °C -14.3 °C 34784.4 hPa NNW 62.6 km/h 62.6 km/h 52 % 0 mm 114.0 W/m2 CLR
17:09 -8.8 °C -14.3 °C 34784.4 hPa NNW 59.5 km/h 59.5 km/h 52 % 0 mm 91.0 W/m2 CLR
17:14 -8.8 °C -14.3 °C 34784.4 hPa NNW 65.5 km/h 65.5 km/h 52 % 0 mm 86.0 W/m2 CLR
17:19 -9.1 °C -14.6 °C 34784.4 hPa NNW 72.6 km/h 72.6 km/h 52 % 0 mm 77.0 W/m2 FEW
17:24 -9.1 °C -14.6 °C 34784.4 hPa NW 50.7 km/h 50.7 km/h 52 % 0 mm 62.0 W/m2 SCT
17:29 -9.1 °C -14.6 °C 34784.4 hPa NW 68.6 km/h 68.6 km/h 52 % 0 mm 47.0 W/m2 SCT
17:34 -9.1 °C -14.4 °C 34784.4 hPa NNW 68.6 km/h 68.6 km/h 53 % 0 mm 39.0 W/m2 BKN
17:39 -9.1 °C -14.4 °C 34784.4 hPa NNW 68.6 km/h 68.6 km/h 53 % 0 mm 28.0 W/m2 BKN
17:44 -9.4 °C -14.6 °C 34784.4 hPa NW 50.7 km/h 50.7 km/h 54 % 0 mm 21.0 W/m2 BKN
17:49 -9.4 °C -14.4 °C 34784.4 hPa NNW 80.5 km/h 80.5 km/h 55 % 0 mm 16.0 W/m2 BKN
17:54 -9.4 °C -14.3 °C 34784.4 hPa NW 56.6 km/h 56.6 km/h 56 % 0 mm 11.0 W/m2 BKN
17:59 -9.4 °C -14.1 °C 34784.4 hPa NNW 68.6 km/h 68.6 km/h 57 % 0 mm 9.0 W/m2 BKN
18:04 -9.8 °C -14.3 °C 34784.4 hPa NNW 65.5 km/h 65.5 km/h 58 % 0 mm 5.0 W/m2 OVC
18:09 -9.8 °C -14.3 °C 34784.4 hPa North 69.8 km/h 69.8 km/h 58 % 0 mm 0.0 W/m2 OVC
18:14 -9.8 °C -14.3 °C 34797.9 hPa North 68.6 km/h 68.6 km/h 58 % 0 mm 0.0 W/m2 CLR
18:19 -9.8 °C -14.2 °C 34784.4 hPa NW 64.7 km/h 64.7 km/h 59 % 0 mm 0.0 W/m2 CLR
18:24 -9.8 °C -14.2 °C 34797.9 hPa NW 65.5 km/h 65.5 km/h 59 % 0 mm 0.0 W/m2 CLR
18:29 -10.1 °C -14.4 °C 34797.9 hPa NW 65.5 km/h 65.5 km/h 59 % 0 mm 0.0 W/m2 CLR
18:34 -10.1 °C -14.3 °C 34797.9 hPa NNW 65.5 km/h 65.5 km/h 60 % 0 mm 0.0 W/m2 CLR
18:39 -10.1 °C -14.2 °C 34797.9 hPa NNW 65.5 km/h 65.5 km/h 61 % 0 mm 0.0 W/m2 CLR
18:44 -10.1 °C -14.2 °C 34808.1 hPa NNW 59.5 km/h 59.5 km/h 61 % 0 mm 0.0 W/m2 CLR
18:49 -10.1 °C -14.2 °C 34808.1 hPa NW 56.6 km/h 56.6 km/h 61 % 0 mm 0.0 W/m2 CLR
18:54 -10.1 °C -14.2 °C 34808.1 hPa NW 53.6 km/h 53.6 km/h 61 % 0 mm 0.0 W/m2 CLR
18:59 -10.1 °C -14.2 °C 34808.1 hPa NW 50.7 km/h 50.7 km/h 61 % 0 mm 0.0 W/m2 CLR
19:04 -10.1 °C -14.2 °C 34808.1 hPa NW 65.5 km/h 65.5 km/h 61 % 0 mm 0.0 W/m2 CLR
19:09 -10.1 °C -14.1 °C 34808.1 hPa North 56.6 km/h 56.6 km/h 62 % 0 mm 0.0 W/m2 CLR
19:14 -10.1 °C -13.9 °C 34808.1 hPa NW 65.5 km/h 65.5 km/h 63 % 0 mm 0.0 W/m2 CLR
19:20 -10.1 °C -13.9 °C 34808.1 hPa NNW 59.5 km/h 59.5 km/h 63 % 0 mm 0.0 W/m2 CLR
19:25 -10.1 °C -13.9 °C 34808.1 hPa NNW 65.5 km/h 65.5 km/h 63 % 0 mm 0.0 W/m2 CLR
19:30 -10.1 °C -13.8 °C 34808.1 hPa NW 72.6 km/h 72.6 km/h 64 % 0 mm 0.0 W/m2 CLR
19:35 -10.1 °C -13.8 °C 34808.1 hPa NNW 62.6 km/h 62.6 km/h 64 % 0 mm 0.0 W/m2 CLR
19:40 -10.1 °C -13.8 °C 34818.2 hPa NW 50.7 km/h 50.7 km/h 64 % 0 mm 0.0 W/m2 CLR
19:45 -10.1 °C -13.8 °C 34808.1 hPa NW 59.5 km/h 59.5 km/h 64 % 0 mm 0.0 W/m2 CLR
19:50 -10.1 °C -13.8 °C 34808.1 hPa NW 59.5 km/h 59.5 km/h 64 % 0 mm 0.0 W/m2 CLR
19:55 -10.1 °C -13.7 °C 34808.1 hPa NW 59.5 km/h 59.5 km/h 65 % 0 mm 0.0 W/m2 CLR
20:00 -10.1 °C -13.7 °C 34808.1 hPa NW 53.6 km/h 53.6 km/h 65 % 0 mm 0.0 W/m2 CLR
20:05 -10.1 °C -13.7 °C 34797.9 hPa NW 80.5 km/h 80.5 km/h 65 % 0 mm 0.0 W/m2 CLR
20:10 -10.1 °C -13.7 °C 34797.9 hPa NW 62.6 km/h 62.6 km/h 65 % 0 mm 0.0 W/m2 CLR
20:15 -10.1 °C -13.7 °C 34797.9 hPa NW 72.6 km/h 72.6 km/h 65 % 0 mm 0.0 W/m2 CLR
20:20 -10.1 °C -13.7 °C 34808.1 hPa NNW 68.6 km/h 68.6 km/h 65 % 0 mm 0.0 W/m2 CLR
20:25 -10.1 °C -13.6 °C 34808.1 hPa NW 77.4 km/h 77.4 km/h 66 % 0 mm 0.0 W/m2 CLR
20:30 -10.1 °C -13.6 °C 34808.1 hPa NNW 68.6 km/h 68.6 km/h 66 % 0 mm 0.0 W/m2 CLR
20:35 -10.1 °C -13.6 °C 34818.2 hPa NNW 77.7 km/h 77.7 km/h 66 % 0 mm 0.0 W/m2 CLR
20:40 -10.1 °C -13.4 °C 34818.2 hPa NW 57 km/h 57 km/h 67 % 0 mm 0.0 W/m2 CLR
20:45 -10.1 °C -13.4 °C 34818.2 hPa NW 65.5 km/h 65.5 km/h 67 % 0 mm 0.0 W/m2 CLR
20:50 -10.1 °C -13.4 °C 34808.1 hPa NW 74.5 km/h 74.5 km/h 67 % 0 mm 0.0 W/m2 CLR
20:55 -10.1 °C -13.4 °C 34818.2 hPa NW 77.4 km/h 77.4 km/h 67 % 0 mm 0.0 W/m2 CLR
21:00 -10.1 °C -13.3 °C 34818.2 hPa NW 56.6 km/h 56.6 km/h 68 % 0 mm 0.0 W/m2 CLR
21:05 -10.1 °C -13.3 °C 34818.2 hPa NW 65.5 km/h 65.5 km/h 68 % 0 mm 0.0 W/m2 CLR
21:10 -10.1 °C -13.3 °C 34808.1 hPa NW 80.5 km/h 80.5 km/h 68 % 0 mm 0.0 W/m2 CLR
21:15 -10.1 °C -13.3 °C 34808.1 hPa NW 69.8 km/h 69.8 km/h 68 % 0 mm 0.0 W/m2 CLR
21:20 -10.1 °C -13.3 °C 34808.1 hPa NW 83.4 km/h 83.4 km/h 68 % 0 mm 0.0 W/m2 CLR
21:25 -10.1 °C -13.3 °C 34808.1 hPa NW 68.6 km/h 68.6 km/h 68 % 0 mm 0.0 W/m2 CLR
21:30 -10.1 °C -13.3 °C 34808.1 hPa NW 77.4 km/h 77.4 km/h 68 % 0 mm 0.0 W/m2 CLR
21:35 -10.1 °C -13.3 °C 34818.2 hPa NW 59.5 km/h 59.5 km/h 68 % 0 mm 0.0 W/m2 CLR
21:40 -10.1 °C -13.2 °C 34818.2 hPa NW 71.5 km/h 71.5 km/h 69 % 0 mm 0.0 W/m2 CLR
21:45 -10.1 °C -13.2 °C 34818.2 hPa NW 68.6 km/h 68.6 km/h 69 % 0 mm 0.0 W/m2 CLR
21:50 -10.4 °C -13.4 °C 34818.2 hPa NW 65.5 km/h 65.5 km/h 69 % 0 mm 0.0 W/m2 CLR
21:55 -10.4 °C -13.4 °C 34818.2 hPa NW 77.4 km/h 77.4 km/h 69 % 0 mm 0.0 W/m2 CLR
22:00 -10.4 °C -13.4 °C 34818.2 hPa NW 56.6 km/h 56.6 km/h 69 % 0 mm 0.0 W/m2 CLR
22:05 -10.4 °C -13.4 °C 34818.2 hPa NW 65.5 km/h 65.5 km/h 69 % 0 mm 0.0 W/m2 CLR
22:10 -10.4 °C -13.3 °C 34818.2 hPa NW 62.6 km/h 62.6 km/h 70 % 0 mm 0.0 W/m2 CLR
22:15 -10.4 °C -13.3 °C 34818.2 hPa NNW 53.6 km/h 53.6 km/h 70 % 0 mm 0.0 W/m2 CLR
22:20 -10.4 °C -13.3 °C 34818.2 hPa NW 68.6 km/h 68.6 km/h 70 % 0 mm 0.0 W/m2 CLR
22:25 -10.4 °C -13.3 °C 34818.2 hPa NW 68.6 km/h 68.6 km/h 70 % 0 mm 0.0 W/m2 CLR
22:30 -10.4 °C -13.3 °C 34818.2 hPa NW 68.6 km/h 68.6 km/h 70 % 0 mm 0.0 W/m2 CLR
22:35 -10.4 °C -13.3 °C 34818.2 hPa NW 64.7 km/h 64.7 km/h 70 % 0 mm 0.0 W/m2 CLR
22:40 -10.4 °C -13.3 °C 34831.8 hPa WNW 68.6 km/h 68.6 km/h 70 % 0 mm 0.0 W/m2 CLR
22:45 -10.4 °C -13.3 °C 34818.2 hPa NW 68.6 km/h 68.6 km/h 70 % 0 mm 0.0 W/m2 CLR
22:50 -10.4 °C -13.3 °C 34831.8 hPa NW 65.5 km/h 65.5 km/h 70 % 0 mm 0.0 W/m2 CLR
22:55 -10.4 °C -13.3 °C 34841.9 hPa NW 54.4 km/h 54.4 km/h 70 % 0 mm 0.0 W/m2 CLR
23:00 -10.4 °C -13.3 °C 34831.8 hPa NW 62.1 km/h 62.1 km/h 70 % 0 mm 0.0 W/m2 CLR
23:05 -10.4 °C -13.2 °C 34831.8 hPa NW 59.5 km/h 59.5 km/h 71 % 0 mm 0.0 W/m2 CLR
23:10 -10.4 °C -13.2 °C 34831.8 hPa NW 59.5 km/h 59.5 km/h 71 % 0 mm 0.0 W/m2 CLR
23:15 -10.4 °C -13.2 °C 34831.8 hPa NW 65.5 km/h 65.5 km/h 71 % 0 mm 0.0 W/m2 CLR
23:20 -10.4 °C -13.2 °C 34831.8 hPa NNW 71.5 km/h 71.5 km/h 71 % 0 mm 0.0 W/m2 CLR
23:25 -10.4 °C -13.2 °C 34831.8 hPa NW 62.6 km/h 62.6 km/h 71 % 0 mm 0.0 W/m2 CLR
23:30 -10.4 °C -13.2 °C 34831.8 hPa NW 59.5 km/h 59.5 km/h 71 % 0 mm 0.0 W/m2 CLR
23:35 -10.4 °C -13.2 °C 34841.9 hPa NW 47.6 km/h 47.6 km/h 71 % 0 mm 0.0 W/m2 CLR
23:40 -10.4 °C -13.2 °C 34841.9 hPa NW 51.8 km/h 51.8 km/h 71 % 0 mm 0.0 W/m2 CLR
23:45 -10.4 °C -13.2 °C 34841.9 hPa NW 59.5 km/h 59.5 km/h 71 % 0 mm 0.0 W/m2 CLR
23:50 -10.4 °C -13.2 °C 34841.9 hPa NW 44.7 km/h 44.7 km/h 71 % 0 mm 0.0 W/m2 CLR
23:55 -10.4 °C -13.3 °C 34841.9 hPa NW 50.7 km/h 50.7 km/h 70 % 0 mm 0.0 W/m2 CLR
Lo Temps de Massalio
Compliments of Weather Underground - 1 mb